Time;durP1;ratioP1;P1;durP2;ratioP2;P2;SDS_P1;SDS_P2;PMS_P1;PMS_P2;Temp;Humidity;BMP_temperature;BMP_pressure;BME280_temperature;BME280_humidity;BME280_pressure;Samples;Min_cycle;Max_cycle;Signal;HPM_P1;HPM_P2
2021/01/16 00:01:03;;;;;;;18.10;12.63;;;7.00;57.20;;;;;;2102600;28;20060;-57
2021/01/16 00:02:24;;;;;;;16.98;13.40;;;7.00;57.30;;;;;;2105563;28;20081;-57
2021/01/16 00:03:45;;;;;;;17.60;12.60;;;7.00;57.20;;;;;;2095839;28;20532;-57
2021/01/16 00:05:06;;;;;;;18.00;13.13;;;7.00;57.20;;;;;;2104312;28;20048;-58
2021/01/16 00:06:30;;;;;;;17.65;12.73;;;7.00;57.30;;;;;;2108020;28;20433;-58
2021/01/16 00:08:05;;;;;;;18.45;13.13;;;7.00;57.30;;;;;;2102900;28;20020;-57
2021/01/16 00:09:26;;;;;;;17.73;12.43;;;7.00;57.30;;;;;;2104255;28;20675;-56
2021/01/16 00:11:05;;;;;;;20.90;13.45;;;7.00;57.20;;;;;;2102674;28;20031;-58
2021/01/16 00:12:26;;;;;;;18.83;12.88;;;7.00;57.20;;;;;;2109109;28;20028;-58
2021/01/16 00:13:47;;;;;;;20.20;13.85;;;7.00;57.10;;;;;;2094025;28;20095;-58
2021/01/16 00:15:09;;;;;;;18.98;13.30;;;7.00;57.10;;;;;;2104341;28;20088;-58
2021/01/16 00:16:30;;;;;;;19.00;13.82;;;7.00;57.10;;;;;;2109723;28;20031;-58
2021/01/16 00:18:18;;;;;;;18.42;12.90;;;7.00;57.10;;;;;;2103864;28;20048;-58
2021/01/16 00:19:38;;;;;;;17.90;12.90;;;7.00;57.20;;;;;;2104113;28;20035;-58
2021/01/16 00:21:00;;;;;;;20.48;13.45;;;7.00;57.20;;;;;;2104058;28;20339;-58
2021/01/16 00:22:21;;;;;;;21.33;13.52;;;7.00;57.10;;;;;;2105756;28;20040;-58
2021/01/16 00:23:42;;;;;;;20.33;13.75;;;7.00;57.10;;;;;;2108142;28;20170;-58
2021/01/16 00:25:04;;;;;;;20.98;13.35;;;7.00;57.20;;;;;;2105712;28;20744;-57
2021/01/16 00:26:25;;;;;;;20.05;13.88;;;7.00;57.20;;;;;;2103330;28;20023;-57
2021/01/16 00:27:46;;;;;;;22.10;14.18;;;7.00;57.20;;;;;;2103555;28;20075;-59
2021/01/16 00:29:07;;;;;;;18.85;13.20;;;7.00;57.20;;;;;;2104610;28;20032;-58
2021/01/16 00:30:32;;;;;;;20.98;14.27;;;7.00;57.30;;;;;;2103833;28;20031;-58
2021/01/16 00:31:53;;;;;;;17.30;12.95;;;7.00;57.20;;;;;;2104505;28;20020;-57
2021/01/16 00:33:18;;;;;;;19.42;13.50;;;7.00;57.30;;;;;;2104328;28;20070;-55
2021/01/16 00:34:39;;;;;;;21.38;13.57;;;7.00;57.20;;;;;;2108796;28;20035;-57
2021/01/16 00:36:01;;;;;;;21.67;13.45;;;7.00;57.20;;;;;;2103853;28;20054;-57
2021/01/16 00:37:22;;;;;;;19.60;14.07;;;7.00;57.30;;;;;;2103826;28;20044;-57
2021/01/16 00:38:43;;;;;;;19.08;13.23;;;7.00;57.30;;;;;;2104479;28;20553;-57
2021/01/16 00:40:07;;;;;;;19.75;14.30;;;7.00;57.30;;;;;;2107563;28;20020;-58
2021/01/16 00:41:28;;;;;;;18.27;12.77;;;7.00;57.40;;;;;;2104431;28;20024;-57
2021/01/16 00:42:51;;;;;;;21.42;13.63;;;7.00;57.40;;;;;;2101874;28;20028;-55
2021/01/16 00:44:12;;;;;;;19.92;13.65;;;7.00;57.40;;;;;;2105797;28;20082;-57
2021/01/16 00:45:33;;;;;;;17.10;13.10;;;7.00;57.40;;;;;;2104391;28;20043;-57
2021/01/16 00:46:54;;;;;;;17.63;13.55;;;7.00;57.40;;;;;;2101327;28;20032;-58
2021/01/16 00:48:22;;;;;;;17.95;13.07;;;7.00;57.40;;;;;;2102182;28;20135;-57
2021/01/16 00:49:43;;;;;;;22.48;13.55;;;7.00;57.40;;;;;;2105394;28;20036;-55
2021/01/16 00:51:04;;;;;;;18.85;13.57;;;7.00;57.40;;;;;;2104721;28;20107;-56
2021/01/16 00:52:24;;;;;;;18.38;13.52;;;7.00;57.50;;;;;;2102209;28;20078;-58
2021/01/16 00:53:45;;;;;;;18.35;13.15;;;7.00;57.50;;;;;;2103100;28;20110;-54
2021/01/16 00:55:08;;;;;;;18.50;13.68;;;7.00;57.50;;;;;;2105910;28;20035;-57
2021/01/16 00:56:29;;;;;;;19.20;13.00;;;7.00;57.50;;;;;;2105564;28;20504;-58
2021/01/16 00:57:54;;;;;;;18.05;13.07;;;7.00;57.50;;;;;;2106099;28;20036;-56
2021/01/16 00:59:15;;;;;;;20.25;13.73;;;7.00;57.50;;;;;;2104939;28;20032;-58
2021/01/16 01:00:37;;;;;;;18.55;13.43;;;7.00;57.60;;;;;;2104425;28;20036;-58
2021/01/16 01:01:57;;;;;;;21.65;13.85;;;7.00;57.50;;;;;;2103552;28;20020;-58
2021/01/16 01:03:20;;;;;;;18.52;13.38;;;7.00;57.60;;;;;;2102672;28;20024;-58
2021/01/16 01:04:41;;;;;;;20.92;14.43;;;7.00;57.60;;;;;;2103802;28;20139;-55
2021/01/16 01:06:02;;;;;;;17.67;13.95;;;7.00;57.50;;;;;;2104166;28;20343;-57
2021/01/16 01:07:23;;;;;;;19.02;13.80;;;7.00;57.60;;;;;;2108680;28;20609;-57
2021/01/16 01:08:43;;;;;;;19.58;14.88;;;7.00;57.60;;;;;;2095978;28;20434;-57
2021/01/16 01:10:07;;;;;;;18.77;14.45;;;7.00;57.60;;;;;;2104167;28;20155;-57
2021/01/16 01:11:27;;;;;;;19.48;14.63;;;7.00;57.60;;;;;;2106599;28;20016;-57
2021/01/16 01:12:49;;;;;;;21.90;14.75;;;7.00;57.60;;;;;;2106266;28;20031;-57
2021/01/16 01:14:10;;;;;;;19.45;14.63;;;7.00;57.60;;;;;;2106106;28;20103;-55
2021/01/16 01:15:31;;;;;;;22.45;15.70;;;7.00;57.60;;;;;;2106052;28;20044;-57
2021/01/16 01:16:51;;;;;;;23.10;15.52;;;7.00;57.60;;;;;;2102982;28;20020;-57
2021/01/16 01:18:12;;;;;;;22.55;14.95;;;7.00;57.60;;;;;;2110616;28;20038;-57
2021/01/16 01:19:33;;;;;;;20.02;14.38;;;7.00;57.70;;;;;;2105453;28;20035;-57
2021/01/16 01:20:54;;;;;;;21.80;14.80;;;7.00;57.70;;;;;;2105506;28;20372;-56
2021/01/16 01:22:15;;;;;;;18.88;14.48;;;7.00;57.70;;;;;;2103674;28;20032;-57
2021/01/16 01:23:36;;;;;;;22.02;14.60;;;6.90;57.70;;;;;;2105783;28;20024;-57
2021/01/16 01:24:58;;;;;;;22.27;15.32;;;7.00;57.80;;;;;;2106070;28;20648;-57
2021/01/16 01:26:19;;;;;;;22.15;15.63;;;7.00;57.90;;;;;;2104687;28;20398;-57
2021/01/16 01:27:40;;;;;;;21.98;15.60;;;7.00;57.80;;;;;;2106854;28;20067;-58
2021/01/16 01:29:01;;;;;;;23.48;15.43;;;7.00;57.80;;;;;;2107360;28;20032;-58
2021/01/16 01:30:24;;;;;;;20.98;14.88;;;7.00;57.90;;;;;;2106215;28;20363;-57
2021/01/16 01:31:45;;;;;;;27.27;16.27;;;7.00;57.90;;;;;;2105443;28;20031;-57
2021/01/16 01:33:14;;;;;;;20.80;14.90;;;7.00;57.80;;;;;;2109740;28;20053;-57
2021/01/16 01:34:35;;;;;;;22.30;14.73;;;7.00;57.90;;;;;;2106379;28;20036;-57
2021/01/16 01:35:56;;;;;;;22.15;15.05;;;6.90;57.80;;;;;;2104442;28;20412;-57
2021/01/16 01:37:17;;;;;;;20.42;14.27;;;6.90;57.90;;;;;;2107231;28;20036;-58
2021/01/16 01:38:38;;;;;;;20.38;14.10;;;6.90;57.90;;;;;;2110756;28;20039;-57
2021/01/16 01:39:59;;;;;;;18.95;13.25;;;6.90;57.90;;;;;;2108604;28;20051;-58
2021/01/16 01:41:20;;;;;;;19.70;14.23;;;6.90;58.00;;;;;;2106209;28;20035;-58
2021/01/16 01:42:41;;;;;;;20.77;14.85;;;6.90;58.00;;;;;;2110984;28;20042;-58
2021/01/16 01:44:02;;;;;;;21.27;14.40;;;6.90;58.00;;;;;;2104930;28;20047;-57
2021/01/16 01:45:24;;;;;;;21.13;15.20;;;6.90;58.00;;;;;;2098528;28;20175;-58
2021/01/16 01:46:45;;;;;;;19.88;14.25;;;6.90;58.00;;;;;;2104227;28;20031;-55
2021/01/16 01:48:07;;;;;;;18.85;13.80;;;6.90;58.00;;;;;;2108787;28;20508;-58
2021/01/16 01:49:28;;;;;;;18.63;13.13;;;6.90;58.00;;;;;;2103362;28;20085;-57
2021/01/16 01:50:49;;;;;;;20.33;13.98;;;6.90;58.00;;;;;;2103134;28;20095;-57
2021/01/16 01:52:11;;;;;;;19.17;14.13;;;6.90;58.00;;;;;;2110722;28;20030;-57
2021/01/16 01:53:34;;;;;;;19.92;14.45;;;6.90;58.00;;;;;;2106203;28;20055;-58
2021/01/16 01:54:56;;;;;;;17.40;13.40;;;6.90;58.00;;;;;;2104854;28;20039;-57
2021/01/16 01:56:19;;;;;;;16.02;13.00;;;6.90;58.00;;;;;;2106146;28;20351;-57
2021/01/16 01:57:49;;;;;;;17.45;12.25;;;6.90;58.00;;;;;;2109947;28;20044;-58
2021/01/16 01:59:11;;;;;;;18.85;13.02;;;6.90;58.00;;;;;;2105069;28;20031;-58
2021/01/16 02:00:32;;;;;;;19.17;13.68;;;6.90;58.10;;;;;;2103419;28;20768;-57
2021/01/16 02:01:55;;;;;;;18.98;13.05;;;6.90;58.10;;;;;;2104423;28;20546;-57
2021/01/16 02:03:16;;;;;;;15.18;11.98;;;6.90;58.10;;;;;;2103219;28;20020;-56
2021/01/16 02:04:38;;;;;;;19.98;13.88;;;6.90;58.00;;;;;;2106187;28;20024;-57
2021/01/16 02:05:59;;;;;;;18.75;13.85;;;6.90;58.10;;;;;;2104346;28;20020;-57
2021/01/16 02:07:28;;;;;;;17.63;12.70;;;6.90;58.00;;;;;;2110142;28;20031;-57
2021/01/16 02:08:49;;;;;;;17.13;12.20;;;6.90;58.10;;;;;;2102231;28;20414;-57
2021/01/16 02:10:23;;;;;;;17.60;12.60;;;6.90;58.00;;;;;;2105267;28;20031;-57
2021/01/16 02:11:44;;;;;;;17.50;13.18;;;6.90;58.10;;;;;;2105993;28;20611;-57
2021/01/16 02:13:05;;;;;;;16.83;12.57;;;6.90;58.10;;;;;;2100763;28;20455;-57
2021/01/16 02:14:31;;;;;;;18.48;13.30;;;6.90;58.10;;;;;;2103825;28;20024;-57
2021/01/16 02:16:09;;;;;;;18.55;13.20;;;6.90;58.10;;;;;;2105761;28;20032;-57
2021/01/16 02:17:35;;;;;;;19.67;13.60;;;6.90;58.10;;;;;;2104917;28;20112;-57
2021/01/16 02:18:58;;;;;;;20.42;14.00;;;6.90;58.00;;;;;;2104422;28;20498;-57
2021/01/16 02:20:33;;;;;;;19.02;13.65;;;6.90;58.00;;;;;;2107182;28;20370;-57
2021/01/16 02:21:54;;;;;;;21.23;13.10;;;6.90;58.00;;;;;;2103847;28;20024;-57
2021/01/16 02:23:28;;;;;;;20.02;13.70;;;6.90;58.00;;;;;;2097542;28;20020;-56
2021/01/16 02:25:11;;;;;;;17.83;12.50;;;6.90;58.00;;;;;;2103486;28;20024;-57
2021/01/16 02:26:46;;;;;;;18.92;12.48;;;6.90;58.00;;;;;;2106447;28;20366;-57
2021/01/16 02:28:15;;;;;;;17.55;13.05;;;6.90;58.00;;;;;;2107502;28;20123;-56
2021/01/16 02:29:38;;;;;;;20.98;13.70;;;6.90;58.00;;;;;;2104368;28;20585;-56
2021/01/16 02:31:00;;;;;;;17.15;12.25;;;6.90;58.00;;;;;;2105284;28;20093;-57
2021/01/16 02:32:22;;;;;;;18.48;13.98;;;6.90;57.90;;;;;;2103005;28;20451;-56
2021/01/16 02:33:45;;;;;;;18.98;12.77;;;6.90;58.00;;;;;;2105672;28;20027;-57
2021/01/16 02:35:08;;;;;;;19.73;13.48;;;6.90;58.00;;;;;;2105803;28;20375;-55
2021/01/16 02:36:52;;;;;;;18.48;13.20;;;6.90;58.10;;;;;;2105993;28;20039;-57
2021/01/16 02:38:30;;;;;;;18.30;13.23;;;6.90;58.20;;;;;;2106064;28;20413;-56
2021/01/16 02:40:10;;;;;;;20.42;13.90;;;6.90;58.20;;;;;;2102983;28;20340;-57
2021/01/16 02:41:37;;;;;;;17.27;12.75;;;6.90;58.20;;;;;;2104171;28;20032;-56
2021/01/16 02:43:40;;;;;;;25.60;12.90;;;6.90;58.10;;;;;;2103159;28;20461;-59
2021/01/16 02:45:11;;;;;;;16.85;12.27;;;6.90;58.30;;;;;;2104498;28;20114;-56
2021/01/16 02:46:38;;;;;;;17.60;12.93;;;6.90;58.20;;;;;;2106745;28;20075;-54
2021/01/16 02:48:08;;;;;;;18.90;13.90;;;6.90;58.20;;;;;;2097799;28;20549;-58
2021/01/16 02:49:29;;;;;;;22.00;14.63;;;6.90;58.10;;;;;;2103072;28;20054;-57
2021/01/16 02:50:51;;;;;;;21.55;14.73;;;6.90;58.00;;;;;;2104390;28;20058;-56
2021/01/16 02:52:17;;;;;;;21.50;14.35;;;6.90;58.00;;;;;;2105100;28;20074;-57
2021/01/16 02:53:48;;;;;;;19.25;14.00;;;6.90;58.00;;;;;;2105078;28;20035;-59
2021/01/16 02:55:09;;;;;;;19.27;13.93;;;6.90;58.00;;;;;;2106057;28;20652;-57
2021/01/16 02:56:34;;;;;;;22.05;15.60;;;6.90;58.10;;;;;;2108083;28;20042;-57
2021/01/16 02:57:55;;;;;;;23.38;14.48;;;6.90;58.20;;;;;;2106018;28;20030;-57
2021/01/16 02:59:16;;;;;;;22.00;15.18;;;6.80;58.20;;;;;;2105645;28;20024;-57
2021/01/16 03:00:37;;;;;;;21.55;14.10;;;6.80;58.20;;;;;;2105770;28;20047;-56
2021/01/16 03:02:00;;;;;;;22.67;14.88;;;6.80;58.10;;;;;;2104647;28;20028;-55
2021/01/16 03:03:21;;;;;;;18.80;14.32;;;6.80;58.10;;;;;;2106026;28;20090;-57
2021/01/16 03:04:43;;;;;;;20.17;13.32;;;6.80;58.10;;;;;;2105207;28;20024;-57
2021/01/16 03:06:06;;;;;;;24.17;14.85;;;6.80;58.10;;;;;;2104406;28;20042;-58
2021/01/16 03:07:30;;;;;;;19.25;14.13;;;6.80;58.10;;;;;;2106955;28;20055;-56
2021/01/16 03:08:54;;;;;;;19.52;13.82;;;6.80;58.10;;;;;;2107632;28;20035;-57
2021/01/16 03:10:16;;;;;;;21.85;13.80;;;6.80;58.00;;;;;;2106864;28;20121;-56
2021/01/16 03:11:37;;;;;;;20.33;13.73;;;6.80;58.00;;;;;;2105426;28;20047;-56
2021/01/16 03:12:58;;;;;;;17.95;13.50;;;6.80;58.10;;;;;;2103075;28;20039;-56
2021/01/16 03:14:20;;;;;;;18.05;13.25;;;6.80;58.10;;;;;;2103278;28;20020;-56
2021/01/16 03:15:43;;;;;;;16.55;12.45;;;6.80;58.20;;;;;;2105504;28;20316;-55
2021/01/16 03:17:11;;;;;;;19.85;13.77;;;6.80;58.20;;;;;;2105498;28;20084;-56
2021/01/16 03:18:32;;;;;;;19.95;13.40;;;6.80;58.10;;;;;;2105353;28;20034;-56
2021/01/16 03:19:53;;;;;;;16.98;12.70;;;6.80;58.10;;;;;;2105127;28;20020;-57
2021/01/16 03:21:14;;;;;;;17.15;12.73;;;6.80;58.10;;;;;;2106308;28;20162;-56
2021/01/16 03:22:34;;;;;;;17.73;12.82;;;6.80;58.10;;;;;;2104373;28;20409;-57
2021/01/16 03:23:55;;;;;;;17.95;13.32;;;6.80;58.00;;;;;;2103095;28;20072;-57
2021/01/16 03:25:18;;;;;;;18.30;13.57;;;6.80;58.50;;;;;;2106171;28;20556;-57
2021/01/16 03:26:39;;;;;;;16.77;13.13;;;6.80;58.00;;;;;;2103680;28;20032;-55
2021/01/16 03:28:00;;;;;;;19.83;13.20;;;6.80;58.10;;;;;;2106857;28;20446;-56
2021/01/16 03:29:21;;;;;;;19.33;12.60;;;6.70;58.00;;;;;;2105204;28;20094;-55
2021/01/16 03:30:42;;;;;;;19.20;12.68;;;6.70;58.00;;;;;;2105989;28;20058;-56
2021/01/16 03:32:04;;;;;;;17.17;13.63;;;6.70;58.00;;;;;;2108653;28;20068;-57
2021/01/16 03:33:25;;;;;;;18.08;12.68;;;6.70;58.00;;;;;;2103305;28;20024;-57
2021/01/16 03:34:48;;;;;;;17.08;12.80;;;6.70;58.00;;;;;;2102063;28;20028;-57
2021/01/16 03:36:09;;;;;;;16.15;12.27;;;6.70;58.10;;;;;;2105128;28;20047;-58
2021/01/16 03:37:30;;;;;;;19.15;12.90;;;6.70;58.20;;;;;;2103994;28;20064;-57
2021/01/16 03:38:51;;;;;;;18.00;12.85;;;6.70;58.20;;;;;;2106076;28;20017;-58
2021/01/16 03:40:13;;;;;;;16.95;12.73;;;6.70;58.20;;;;;;2102316;28;20032;-55
2021/01/16 03:41:34;;;;;;;16.45;12.57;;;6.70;58.20;;;;;;2104605;28;20032;-57
2021/01/16 03:42:55;;;;;;;17.98;13.15;;;6.80;58.30;;;;;;2103049;28;20020;-58
2021/01/16 03:44:16;;;;;;;18.10;14.07;;;6.80;58.20;;;;;;2105888;28;20056;-57
2021/01/16 03:45:37;;;;;;;19.40;12.98;;;6.70;58.20;;;;;;2107165;28;20024;-57
2021/01/16 03:46:58;;;;;;;20.63;13.80;;;6.80;58.20;;;;;;2103748;28;20081;-57
2021/01/16 03:48:18;;;;;;;15.88;12.60;;;6.80;58.10;;;;;;2105452;28;20606;-57
2021/01/16 03:49:39;;;;;;;19.05;13.60;;;6.80;58.00;;;;;;2104909;28;20131;-57
2021/01/16 03:51:00;;;;;;;20.63;14.57;;;6.70;57.90;;;;;;2105135;28;20614;-57
2021/01/16 03:52:33;;;;;;;18.77;13.68;;;6.70;57.90;;;;;;2103728;28;20066;-56
2021/01/16 03:53:53;;;;;;;16.83;12.98;;;6.70;57.90;;;;;;2107802;28;20111;-59
2021/01/16 03:55:14;;;;;;;17.88;12.75;;;6.70;57.90;;;;;;2105269;28;20058;-56
2021/01/16 03:56:36;;;;;;;17.63;12.85;;;6.70;57.90;;;;;;2106437;28;20074;-56
2021/01/16 03:57:56;;;;;;;17.55;13.27;;;6.70;58.00;;;;;;2103568;28;20020;-57
2021/01/16 03:59:17;;;;;;;17.83;12.88;;;6.70;58.00;;;;;;2108601;28;20463;-58
2021/01/16 04:00:38;;;;;;;19.08;13.95;;;6.70;58.00;;;;;;2105421;28;20039;-58
2021/01/16 04:01:59;;;;;;;18.80;13.70;;;6.70;58.00;;;;;;2105442;28;20024;-58
2021/01/16 04:03:20;;;;;;;19.40;13.75;;;6.60;58.00;;;;;;2105296;28;20122;-57
2021/01/16 04:04:41;;;;;;;18.92;13.98;;;6.70;58.10;;;;;;2104378;28;20659;-56
2021/01/16 04:06:02;;;;;;;20.52;14.95;;;6.70;58.10;;;;;;2103383;28;20043;-55
2021/01/16 04:07:23;;;;;;;19.15;13.30;;;6.70;58.10;;;;;;2101904;28;20027;-57
2021/01/16 04:08:44;;;;;;;19.75;13.65;;;6.70;58.10;;;;;;2110090;28;20027;-57
2021/01/16 04:10:06;;;;;;;18.45;13.93;;;6.70;58.10;;;;;;2097850;28;20032;-57
2021/01/16 04:11:28;;;;;;;19.48;14.57;;;6.70;58.10;;;;;;2095429;28;20020;-57
2021/01/16 04:12:48;;;;;;;20.63;14.43;;;6.70;58.10;;;;;;2100199;28;20030;-57
2021/01/16 04:14:09;;;;;;;21.38;13.95;;;6.70;58.10;;;;;;2104402;28;20066;-57
2021/01/16 04:15:30;;;;;;;19.42;14.48;;;6.70;58.10;;;;;;2104061;28;20035;-57
2021/01/16 04:16:51;;;;;;;18.58;13.50;;;6.70;58.10;;;;;;2106412;28;20528;-55
2021/01/16 04:18:12;;;;;;;19.58;13.45;;;6.70;58.10;;;;;;2104917;28;20107;-56
2021/01/16 04:19:34;;;;;;;21.45;14.05;;;6.70;58.10;;;;;;2105356;28;20510;-53
2021/01/16 04:20:55;;;;;;;20.65;14.63;;;6.70;58.10;;;;;;2104912;28;20028;-56
2021/01/16 04:22:15;;;;;;;21.08;14.90;;;6.70;58.10;;;;;;2105711;28;20074;-55
2021/01/16 04:23:36;;;;;;;20.02;14.48;;;6.70;58.10;;;;;;2103788;28;20463;-56
2021/01/16 04:24:57;;;;;;;18.63;14.38;;;6.70;58.00;;;;;;2104082;28;20020;-55
2021/01/16 04:26:18;;;;;;;19.08;13.80;;;6.70;58.00;;;;;;2104723;28;20389;-57
2021/01/16 04:27:39;;;;;;;21.75;13.63;;;6.60;58.00;;;;;;2103903;28;20034;-57
2021/01/16 04:29:00;;;;;;;19.23;13.60;;;6.60;58.00;;;;;;2107671;28;20066;-56
2021/01/16 04:30:21;;;;;;;19.48;14.02;;;6.60;58.00;;;;;;2103662;28;20043;-57
2021/01/16 04:31:42;;;;;;;18.52;13.77;;;6.60;58.10;;;;;;2100378;28;20028;-57
2021/01/16 04:33:04;;;;;;;19.15;13.55;;;6.60;58.20;;;;;;2104333;28;20034;-57
2021/01/16 04:34:24;;;;;;;19.23;13.68;;;6.60;58.30;;;;;;2104937;28;20028;-55
2021/01/16 04:35:45;;;;;;;19.95;13.35;;;6.60;58.30;;;;;;2103971;28;20544;-56
2021/01/16 04:37:06;;;;;;;16.88;13.43;;;6.60;58.40;;;;;;2106099;28;20364;-57
2021/01/16 04:38:27;;;;;;;19.30;14.63;;;6.60;58.30;;;;;;2102954;28;20024;-57
2021/01/16 04:39:48;;;;;;;19.92;14.48;;;6.60;58.40;;;;;;2105042;28;20017;-57
2021/01/16 04:41:09;;;;;;;20.13;14.70;;;6.60;58.40;;;;;;2105709;28;20036;-55
2021/01/16 04:42:31;;;;;;;19.70;14.63;;;6.60;58.50;;;;;;2108395;28;20028;-56
2021/01/16 04:43:52;;;;;;;19.90;13.70;;;6.60;58.40;;;;;;2103792;28;20162;-54
2021/01/16 04:45:15;;;;;;;20.92;14.50;;;6.60;58.50;;;;;;2107218;28;20035;-56
2021/01/16 04:46:36;;;;;;;18.73;13.93;;;6.60;58.40;;;;;;2101089;28;20071;-56
2021/01/16 04:48:02;;;;;;;20.75;14.55;;;6.60;58.40;;;;;;2102857;28;20028;-57
2021/01/16 04:49:24;;;;;;;18.70;13.45;;;6.60;58.30;;;;;;2108381;28;20024;-57
2021/01/16 04:50:48;;;;;;;20.88;14.98;;;6.60;58.30;;;;;;2105158;28;20111;-56
2021/01/16 04:52:10;;;;;;;21.63;15.38;;;6.60;58.40;;;;;;2106460;28;20106;-57
2021/01/16 04:53:39;;;;;;;21.85;14.90;;;6.60;58.30;;;;;;2107537;28;20028;-57
2021/01/16 04:55:01;;;;;;;20.58;14.77;;;6.60;58.30;;;;;;2105865;28;20544;-57
2021/01/16 04:56:22;;;;;;;25.25;16.10;;;6.60;58.30;;;;;;2105651;28;20033;-57
2021/01/16 04:57:44;;;;;;;23.98;15.25;;;6.60;58.30;;;;;;2106581;28;20036;-57
2021/01/16 04:59:05;;;;;;;21.80;15.52;;;6.60;58.30;;;;;;2105263;28;20039;-57
2021/01/16 05:00:27;;;;;;;19.00;14.13;;;6.60;58.30;;;;;;2106571;28;20084;-57
2021/01/16 05:01:49;;;;;;;20.67;15.23;;;6.60;58.30;;;;;;2097871;28;20027;-58
2021/01/16 05:03:12;;;;;;;23.50;15.45;;;6.60;58.30;;;;;;2104447;28;20020;-57
2021/01/16 05:04:36;;;;;;;20.40;14.60;;;6.60;58.30;;;;;;2104837;28;20035;-57
2021/01/16 05:05:58;;;;;;;21.83;15.15;;;6.60;58.20;;;;;;2105739;28;20425;-57
2021/01/16 05:07:19;;;;;;;20.98;13.98;;;6.60;58.20;;;;;;2106257;28;20024;-57
2021/01/16 05:08:42;;;;;;;21.75;15.18;;;6.50;58.20;;;;;;2106532;28;20036;-57
2021/01/16 05:10:05;;;;;;;21.70;14.70;;;6.60;58.30;;;;;;2107054;28;20024;-57
2021/01/16 05:11:39;;;;;;;19.45;14.18;;;6.50;58.20;;;;;;2110569;28;20042;-58
2021/01/16 05:13:04;;;;;;;20.20;14.07;;;6.50;58.20;;;;;;2104591;28;20074;-57
2021/01/16 05:14:35;;;;;;;19.55;14.27;;;6.50;58.20;;;;;;2105376;28;20418;-58
2021/01/16 05:15:59;;;;;;;19.65;13.85;;;6.60;58.20;;;;;;2107589;28;20028;-57
2021/01/16 05:17:21;;;;;;;20.70;13.50;;;6.50;58.10;;;;;;2107349;28;20020;-57
2021/01/16 05:18:43;;;;;;;21.67;15.35;;;6.50;58.20;;;;;;2104553;28;20020;-57
2021/01/16 05:20:07;;;;;;;20.30;15.05;;;6.50;58.20;;;;;;2097683;28;20036;-57
2021/01/16 05:21:30;;;;;;;20.05;14.32;;;6.50;58.20;;;;;;2105317;28;20017;-57
2021/01/16 05:22:51;;;;;;;20.77;15.45;;;6.50;58.20;;;;;;2103725;28;20039;-57
2021/01/16 05:24:14;;;;;;;18.40;13.43;;;6.50;58.20;;;;;;2106857;28;20035;-55
2021/01/16 05:25:35;;;;;;;21.15;14.07;;;6.50;58.20;;;;;;2106968;28;20115;-55
2021/01/16 05:27:00;;;;;;;20.50;14.07;;;6.50;58.20;;;;;;2107593;28;20023;-56
2021/01/16 05:28:23;;;;;;;20.05;14.48;;;6.50;58.30;;;;;;2111278;28;20032;-57
2021/01/16 05:29:44;;;;;;;21.42;14.88;;;6.50;58.40;;;;;;2107333;28;20509;-57
2021/01/16 05:31:07;;;;;;;20.13;14.75;;;6.50;58.40;;;;;;2105529;28;20063;-57
2021/01/16 05:32:30;;;;;;;19.17;14.93;;;6.50;58.50;;;;;;2104995;28;20020;-56
2021/01/16 05:33:51;;;;;;;20.85;14.55;;;6.50;58.50;;;;;;2103269;28;20026;-57
2021/01/16 05:35:20;;;;;;;19.77;14.50;;;6.50;58.60;;;;;;2107932;28;20388;-56
2021/01/16 05:36:51;;;;;;;19.50;13.95;;;6.50;58.50;;;;;;2107155;28;20043;-55
2021/01/16 05:38:13;;;;;;;19.83;15.15;;;6.50;58.40;;;;;;2109226;28;20039;-57
2021/01/16 05:39:35;;;;;;;22.00;15.00;;;6.50;58.40;;;;;;2097583;28;20021;-56
2021/01/16 05:40:56;;;;;;;19.20;14.82;;;6.50;58.40;;;;;;2101374;28;20033;-56
2021/01/16 05:42:17;;;;;;;22.10;14.52;;;6.50;58.40;;;;;;2107627;28;20035;-56
2021/01/16 05:43:41;;;;;;;22.10;15.43;;;6.50;58.40;;;;;;2106302;28;20501;-55
2021/01/16 05:45:02;;;;;;;19.92;14.55;;;6.50;58.50;;;;;;2106109;28;20035;-57
2021/01/16 05:46:29;;;;;;;20.58;14.00;;;6.50;58.50;;;;;;2097557;28;20021;-56
2021/01/16 05:47:51;;;;;;;22.40;15.98;;;6.50;58.50;;;;;;2096521;28;20032;-55
2021/01/16 05:49:16;;;;;;;22.70;15.52;;;6.50;58.50;;;;;;2104932;28;20044;-57
2021/01/16 05:50:40;;;;;;;23.20;14.98;;;6.50;58.50;;;;;;2106326;28;20038;-58
2021/01/16 05:52:06;;;;;;;21.75;15.27;;;6.50;58.50;;;;;;2103761;28;20036;-57
2021/01/16 05:53:28;;;;;;;20.45;14.25;;;6.50;58.50;;;;;;2103536;28;20354;-56
2021/01/16 05:54:50;;;;;;;20.30;14.57;;;6.50;58.50;;;;;;2103472;28;20028;-57
2021/01/16 05:56:12;;;;;;;20.05;13.45;;;6.50;58.50;;;;;;2106086;28;20074;-57
2021/01/16 05:57:34;;;;;;;18.80;14.27;;;6.50;58.50;;;;;;2104331;28;20035;-57
2021/01/16 05:58:58;;;;;;;22.50;15.45;;;6.50;58.50;;;;;;2103788;28;20028;-57
2021/01/16 06:00:24;;;;;;;24.60;15.32;;;6.50;58.40;;;;;;2105204;28;20024;-57
2021/01/16 06:01:47;;;;;;;22.15;15.70;;;6.40;58.40;;;;;;2102378;28;20413;-57
2021/01/16 06:03:11;;;;;;;18.20;13.75;;;6.50;58.40;;;;;;2106626;28;20070;-57
2021/01/16 06:04:33;;;;;;;19.58;13.70;;;6.40;58.40;;;;;;2104690;28;20047;-58
2021/01/16 06:05:54;;;;;;;18.75;13.63;;;6.40;58.30;;;;;;2100279;28;20064;-57
2021/01/16 06:07:21;;;;;;;20.77;14.30;;;6.40;58.30;;;;;;2105975;28;20086;-57
2021/01/16 06:08:52;;;;;;;20.75;13.70;;;6.40;58.40;;;;;;2102170;28;20024;-56
2021/01/16 06:10:13;;;;;;;21.52;14.48;;;6.40;58.40;;;;;;2106797;28;20023;-57
2021/01/16 06:11:38;;;;;;;18.75;14.02;;;6.40;58.30;;;;;;2109094;28;20521;-57
2021/01/16 06:13:14;;;;;;;22.20;15.38;;;6.40;58.30;;;;;;2106491;28;20039;-57
2021/01/16 06:14:43;;;;;;;21.25;14.63;;;6.40;58.40;;;;;;2096761;28;20071;-56
2021/01/16 06:16:09;;;;;;;19.48;13.32;;;6.40;58.40;;;;;;2104541;28;20020;-57
2021/01/16 06:17:32;;;;;;;21.25;14.68;;;6.40;58.40;;;;;;2105602;28;20040;-57
2021/01/16 06:18:55;;;;;;;20.60;14.10;;;6.40;58.40;;;;;;2105681;28;20032;-56
2021/01/16 06:20:19;;;;;;;20.45;14.18;;;6.30;58.30;;;;;;2106286;28;20365;-57
2021/01/16 06:21:43;;;;;;;21.65;13.77;;;6.30;58.30;;;;;;2097651;28;20039;-57
2021/01/16 06:23:13;;;;;;;18.90;14.07;;;6.30;58.30;;;;;;2104788;28;20042;-55
2021/01/16 06:24:36;;;;;;;20.05;14.07;;;6.30;58.90;;;;;;2105353;28;20031;-57
2021/01/16 06:25:58;;;;;;;19.50;13.95;;;6.30;58.40;;;;;;2103659;28;20153;-57
2021/01/16 06:27:25;;;;;;;22.10;14.15;;;6.30;58.40;;;;;;2105721;28;20028;-56
2021/01/16 06:28:58;;;;;;;20.35;13.90;;;6.30;58.50;;;;;;2105188;28;20032;-55
2021/01/16 06:30:21;;;;;;;19.05;13.90;;;6.30;58.60;;;;;;2102783;28;20496;-55
2021/01/16 06:31:49;;;;;;;21.58;14.52;;;6.30;58.60;;;;;;2103450;28;20024;-59
2021/01/16 06:33:27;;;;;;;20.95;15.20;;;6.30;58.60;;;;;;2109967;28;20020;-59
2021/01/16 06:35:05;;;;;;;18.52;13.40;;;6.30;58.50;;;;;;2103752;28;20020;-57
2021/01/16 06:36:28;;;;;;;20.80;13.55;;;6.30;58.50;;;;;;2106371;28;20054;-56
2021/01/16 06:37:51;;;;;;;21.92;13.82;;;6.30;58.50;;;;;;2103336;28;20036;-57
2021/01/16 06:39:18;;;;;;;19.17;14.45;;;6.30;58.50;;;;;;2106086;28;20043;-57
2021/01/16 06:40:39;;;;;;;19.73;13.70;;;6.30;58.40;;;;;;2105404;28;20024;-56
2021/01/16 06:42:06;;;;;;;20.02;14.25;;;6.30;58.50;;;;;;2106946;28;20637;-57
2021/01/16 06:43:37;;;;;;;20.42;13.90;;;6.30;58.50;;;;;;2105735;28;20153;-57
2021/01/16 06:45:14;;;;;;;20.55;14.43;;;6.30;58.50;;;;;;2102005;28;20043;-57
2021/01/16 06:46:43;;;;;;;20.02;13.80;;;6.30;59.10;;;;;;2105428;28;20100;-56
2021/01/16 06:48:04;;;;;;;20.27;14.13;;;6.30;58.50;;;;;;2104351;28;20032;-57
2021/01/16 06:49:27;;;;;;;19.65;14.07;;;6.30;58.50;;;;;;2107137;28;20036;-57
2021/01/16 06:50:51;;;;;;;19.65;13.05;;;6.40;58.50;;;;;;2102253;28;20020;-57
2021/01/16 06:52:12;;;;;;;21.88;14.43;;;6.30;58.50;;;;;;2106863;28;20170;-57
2021/01/16 06:53:32;;;;;;;20.95;13.73;;;6.30;58.50;;;;;;2106887;28;20042;-58
2021/01/16 06:54:54;;;;;;;19.45;13.95;;;6.30;58.50;;;;;;2105632;28;20027;-57
2021/01/16 06:56:25;;;;;;;20.77;13.73;;;6.30;58.50;;;;;;2105239;28;20098;-56
2021/01/16 06:57:46;;;;;;;19.58;13.80;;;6.30;58.50;;;;;;2104413;28;20067;-56
2021/01/16 06:59:25;;;;;;;21.88;14.15;;;6.30;58.50;;;;;;2105666;28;20440;-59
2021/01/16 07:00:56;;;;;;;20.42;13.85;;;6.40;58.60;;;;;;2102366;28;20020;-56
2021/01/16 07:02:32;;;;;;;19.13;13.20;;;6.40;58.60;;;;;;2104684;28;20031;-59
2021/01/16 07:03:54;;;;;;;17.33;13.77;;;6.30;58.50;;;;;;2103272;28;20028;-58
2021/01/16 07:05:20;;;;;;;20.80;13.98;;;6.40;58.50;;;;;;2102038;28;20097;-58
2021/01/16 07:06:48;;;;;;;19.23;13.75;;;6.40;58.50;;;;;;2106659;28;20450;-58
2021/01/16 07:08:11;;;;;;;22.77;15.77;;;6.30;58.50;;;;;;2105849;28;20077;-58
2021/01/16 07:09:34;;;;;;;21.95;14.80;;;6.40;58.50;;;;;;2105288;28;20032;-59